Time;durP1;ratioP1;P1;durP2;ratioP2;P2;SDS_P1;SDS_P2;PMS_P1;PMS_P2;Temp;Humidity;BMP_temperature;BMP_pressure;BME280_temperature;BME280_humidity;BME280_pressure;Samples;Min_cycle;Max_cycle;Signal;HPM_P1;HPM_P2
2021/01/18 00:00:48;;;;;;;19.88;10.57;;;;;;;;;;5047829;28;20064;-54
2021/01/18 00:03:14;;;;;;;25.08;11.18;;;;;;;;;;5046997;28;20041;-56
2021/01/18 00:05:40;;;;;;;22.80;10.82;;;;;;;;;;5047282;28;20060;-56
2021/01/18 00:08:06;;;;;;;23.45;11.30;;;;;;;;;;5044236;28;20399;-56
2021/01/18 00:10:32;;;;;;;21.42;11.05;;;;;;;;;;5046875;28;20026;-57
2021/01/18 00:12:58;;;;;;;20.25;10.50;;;;;;;;;;5047265;28;20032;-53
2021/01/18 00:15:25;;;;;;;22.88;10.68;;;;;;;;;;5047057;28;20112;-54
2021/01/18 00:17:51;;;;;;;22.95;11.30;;;;;;;;;;5047089;28;20041;-52
2021/01/18 00:20:18;;;;;;;28.65;12.00;;;;;;;;;;5045993;28;20062;-55
2021/01/18 00:22:44;;;;;;;24.55;11.10;;;;;;;;;;5047337;28;20036;-57
2021/01/18 00:25:14;;;;;;;23.55;12.05;;;;;;;;;;5047431;28;20043;-55
2021/01/18 00:27:40;;;;;;;24.45;11.20;;;;;;;;;;5046156;28;20027;-55
2021/01/18 00:30:11;;;;;;;22.30;11.70;;;;;;;;;;5046572;28;20037;-54
2021/01/18 00:32:38;;;;;;;19.67;10.57;;;;;;;;;;5047170;28;20017;-53
2021/01/18 00:35:05;;;;;;;34.10;13.15;;;;;;;;;;5059441;28;20036;-56
2021/01/18 00:37:31;;;;;;;24.77;12.35;;;;;;;;;;5046462;28;20059;-57
2021/01/18 00:39:57;;;;;;;22.77;10.57;;;;;;;;;;5047391;28;20798;-55
2021/01/18 00:42:23;;;;;;;24.23;10.82;;;;;;;;;;5049962;28;20028;-56
2021/01/18 00:44:49;;;;;;;19.95;11.07;;;;;;;;;;5049902;28;20051;-53
2021/01/18 00:47:15;;;;;;;24.83;11.55;;;;;;;;;;5050929;28;20025;-55
2021/01/18 00:49:41;;;;;;;25.40;11.85;;;;;;;;;;5043976;28;20032;-55
2021/01/18 00:52:07;;;;;;;21.05;11.15;;;;;;;;;;5051056;28;20031;-54
2021/01/18 00:54:33;;;;;;;24.38;12.02;;;;;;;;;;5050298;28;20056;-53
2021/01/18 00:56:59;;;;;;;25.63;13.05;;;;;;;;;;5050904;28;20029;-53
2021/01/18 00:59:25;;;;;;;28.42;12.73;;;;;;;;;;5049926;28;20025;-53
2021/01/18 01:01:51;;;;;;;24.88;11.93;;;;;;;;;;5049937;28;20083;-57
2021/01/18 01:04:17;;;;;;;53.80;24.45;;;;;;;;;;5050452;28;20109;-51
2021/01/18 01:06:43;;;;;;;26.10;13.40;;;;;;;;;;5050222;28;20021;-57
2021/01/18 01:09:09;;;;;;;28.33;12.70;;;;;;;;;;5050167;28;20025;-54
2021/01/18 01:11:42;;;;;;;24.90;11.70;;;;;;;;;;5050504;28;20028;-57
2021/01/18 01:14:08;;;;;;;21.05;11.15;;;;;;;;;;5049745;28;20033;-53
2021/01/18 01:16:34;;;;;;;22.00;11.27;;;;;;;;;;5050098;28;20036;-51
2021/01/18 01:19:00;;;;;;;24.20;10.75;;;;;;;;;;5049439;28;20021;-57
2021/01/18 01:21:26;;;;;;;24.73;11.52;;;;;;;;;;5049732;28;20025;-55
2021/01/18 01:23:52;;;;;;;24.20;11.50;;;;;;;;;;5050458;28;20087;-54
2021/01/18 01:26:18;;;;;;;24.30;11.38;;;;;;;;;;5049952;28;20083;-54
2021/01/18 01:28:45;;;;;;;25.38;12.38;;;;;;;;;;5047822;28;20024;-54
2021/01/18 01:31:11;;;;;;;24.13;11.93;;;;;;;;;;5049741;28;20028;-54
2021/01/18 01:33:37;;;;;;;22.70;11.52;;;;;;;;;;5047799;28;20024;-54
2021/01/18 01:36:03;;;;;;;21.05;10.82;;;;;;;;;;5049704;28;20055;-53
2021/01/18 01:38:29;;;;;;;21.10;10.57;;;;;;;;;;5049659;28;20029;-57
2021/01/18 01:40:55;;;;;;;24.33;11.45;;;;;;;;;;5041848;28;20504;-56
2021/01/18 01:43:21;;;;;;;23.67;10.75;;;;;;;;;;5029539;28;20033;-52
2021/01/18 01:45:47;;;;;;;20.23;10.82;;;;;;;;;;5030255;28;20036;-50
2021/01/18 01:48:13;;;;;;;23.45;11.82;;;;;;;;;;5030023;28;20025;-56
2021/01/18 01:50:39;;;;;;;21.20;11.40;;;;;;;;;;5038319;28;20024;-52
2021/01/18 01:53:20;;;;;;;20.45;10.73;;;;;;;;;;5046796;28;20033;-52
2021/01/18 01:55:46;;;;;;;22.17;11.73;;;;;;;;;;5049380;28;20099;-51
2021/01/18 01:58:13;;;;;;;24.88;12.27;;;;;;;;;;5049659;28;20044;-54
2021/01/18 02:00:39;;;;;;;22.55;11.85;;;;;;;;;;5048916;28;20110;-54
2021/01/18 02:03:25;;;;;;;26.73;13.63;;;;;;;;;;5048761;28;20500;-54
2021/01/18 02:05:53;;;;;;;25.13;12.52;;;;;;;;;;5049112;28;20036;-55
2021/01/18 02:08:19;;;;;;;23.10;12.65;;;;;;;;;;5049606;28;20091;-55
2021/01/18 02:10:45;;;;;;;27.52;12.63;;;;;;;;;;5048594;28;20044;-55
2021/01/18 02:13:17;;;;;;;21.83;12.43;;;;;;;;;;5049328;28;20028;-54
2021/01/18 02:16:09;;;;;;;30.17;14.52;;;;;;;;;;5048584;28;20028;-56
2021/01/18 02:18:47;;;;;;;30.02;14.00;;;;;;;;;;5025595;28;20037;-53
2021/01/18 02:21:16;;;;;;;32.28;15.38;;;;;;;;;;5042788;28;20039;-56
2021/01/18 02:23:57;;;;;;;30.67;15.15;;;;;;;;;;5049168;28;20039;-53
2021/01/18 02:26:42;;;;;;;33.97;15.45;;;;;;;;;;5049267;28;20050;-54
2021/01/18 02:29:17;;;;;;;37.67;16.67;;;;;;;;;;5048078;28;20040;-54
2021/01/18 02:31:52;;;;;;;31.15;15.75;;;;;;;;;;5048583;28;20385;-54
2021/01/18 02:34:21;;;;;;;35.95;17.50;;;;;;;;;;5059121;28;20048;-57
2021/01/18 02:37:02;;;;;;;39.03;18.25;;;;;;;;;;5049610;28;20438;-55
2021/01/18 02:39:47;;;;;;;38.65;17.10;;;;;;;;;;5048800;28;20532;-55
2021/01/18 02:42:14;;;;;;;34.42;17.83;;;;;;;;;;5047739;28;20682;-57
2021/01/18 02:44:41;;;;;;;39.50;18.65;;;;;;;;;;5048296;28;20068;-52
2021/01/18 02:47:09;;;;;;;39.25;18.75;;;;;;;;;;5048280;28;20094;-53
2021/01/18 02:49:35;;;;;;;44.17;20.20;;;;;;;;;;5042289;28;20029;-57
2021/01/18 02:52:04;;;;;;;37.75;17.65;;;;;;;;;;5045405;28;20032;-50
2021/01/18 02:54:30;;;;;;;36.78;18.20;;;;;;;;;;5048072;28;20364;-53
2021/01/18 02:56:57;;;;;;;38.72;17.73;;;;;;;;;;5048532;28;20083;-53
2021/01/18 02:59:23;;;;;;;38.90;18.42;;;;;;;;;;5047767;28;20099;-57
2021/01/18 03:02:03;;;;;;;35.25;17.30;;;;;;;;;;5047966;28;20033;-56
2021/01/18 03:04:35;;;;;;;38.42;17.75;;;;;;;;;;5047184;28;20033;-57
2021/01/18 03:07:16;;;;;;;39.92;18.42;;;;;;;;;;5048302;28;20068;-55
2021/01/18 03:09:51;;;;;;;64.95;29.10;;;;;;;;;;5047859;28;20021;-55
2021/01/18 03:12:20;;;;;;;45.25;20.55;;;;;;;;;;5048509;28;20021;-52
2021/01/18 03:14:47;;;;;;;40.00;18.67;;;;;;;;;;5047828;28;20504;-56
2021/01/18 03:17:17;;;;;;;39.40;18.92;;;;;;;;;;5047951;28;20376;-53
2021/01/18 03:19:44;;;;;;;38.47;18.05;;;;;;;;;;5047109;28;20025;-56
2021/01/18 03:22:10;;;;;;;41.55;18.55;;;;;;;;;;5048149;28;20029;-52
2021/01/18 03:24:37;;;;;;;37.20;19.05;;;;;;;;;;5047820;28;20032;-56
2021/01/18 03:27:03;;;;;;;36.00;18.58;;;;;;;;;;5047568;28;20108;-53
2021/01/18 03:29:29;;;;;;;38.22;18.83;;;;;;;;;;5047306;28;20031;-54
2021/01/18 03:31:55;;;;;;;52.25;25.05;;;;;;;;;;5048067;28;20013;-54
2021/01/18 03:34:21;;;;;;;42.67;19.30;;;;;;;;;;5058449;28;20024;-53
2021/01/18 03:36:47;;;;;;;42.92;19.90;;;;;;;;;;5064926;28;20021;-51
2021/01/18 03:39:13;;;;;;;42.25;20.30;;;;;;;;;;5047791;28;20546;-55
2021/01/18 03:41:39;;;;;;;48.92;22.30;;;;;;;;;;5047504;28;20692;-55
2021/01/18 03:44:05;;;;;;;45.25;20.85;;;;;;;;;;5047481;28;20063;-56
2021/01/18 03:46:31;;;;;;;41.58;20.83;;;;;;;;;;5047969;28;20702;-54
2021/01/18 03:48:57;;;;;;;41.03;20.45;;;;;;;;;;5046915;28;20155;-51
2021/01/18 03:51:29;;;;;;;41.38;19.83;;;;;;;;;;5035087;28;20070;-55
2021/01/18 03:53:55;;;;;;;46.58;22.27;;;;;;;;;;5045838;28;20087;-55
2021/01/18 03:56:21;;;;;;;41.92;20.23;;;;;;;;;;5047902;28;20029;-53
2021/01/18 03:58:47;;;;;;;39.95;20.17;;;;;;;;;;5047308;28;20017;-51
2021/01/18 04:01:13;;;;;;;45.95;22.33;;;;;;;;;;5047148;28;20025;-56
2021/01/18 04:03:39;;;;;;;40.03;19.92;;;;;;;;;;5047336;28;20049;-55
2021/01/18 04:06:05;;;;;;;46.33;21.77;;;;;;;;;;5047849;28;20029;-53
2021/01/18 04:08:30;;;;;;;48.75;21.80;;;;;;;;;;5047708;28;20025;-56
2021/01/18 04:10:56;;;;;;;39.95;19.83;;;;;;;;;;5047430;28;20025;-54
2021/01/18 04:13:22;;;;;;;49.30;21.58;;;;;;;;;;5047461;28;20021;-52
2021/01/18 04:15:48;;;;;;;40.70;19.63;;;;;;;;;;5047700;28;20028;-50
2021/01/18 04:18:14;;;;;;;42.00;19.45;;;;;;;;;;5051687;28;20029;-51
2021/01/18 04:20:40;;;;;;;42.95;20.65;;;;;;;;;;5042009;28;20479;-54
2021/01/18 04:23:06;;;;;;;41.25;21.45;;;;;;;;;;5051211;28;20033;-56
2021/01/18 04:25:32;;;;;;;43.78;20.77;;;;;;;;;;5051399;28;20025;-51
2021/01/18 04:27:59;;;;;;;42.80;19.95;;;;;;;;;;5050886;28;20033;-57
2021/01/18 04:30:26;;;;;;;43.70;20.75;;;;;;;;;;5050015;28;20033;-57
2021/01/18 04:33:10;;;;;;;47.08;20.85;;;;;;;;;;5051482;28;20520;-54
2021/01/18 04:35:38;;;;;;;58.08;26.08;;;;;;;;;;5036833;28;20029;-55
2021/01/18 04:38:04;;;;;;;45.85;22.20;;;;;;;;;;5050533;28;20112;-55
2021/01/18 04:40:31;;;;;;;46.42;22.80;;;;;;;;;;5050858;28;20033;-57
2021/01/18 04:42:57;;;;;;;43.88;20.00;;;;;;;;;;5050743;28;20032;-52
2021/01/18 04:45:24;;;;;;;49.35;21.35;;;;;;;;;;5050394;28;20041;-53
2021/01/18 04:47:51;;;;;;;46.83;21.38;;;;;;;;;;5031295;28;20022;-56
2021/01/18 04:50:18;;;;;;;40.55;20.30;;;;;;;;;;5039402;28;20061;-54
2021/01/18 04:52:51;;;;;;;46.38;21.50;;;;;;;;;;5050894;28;20033;-53
2021/01/18 04:55:26;;;;;;;41.97;20.73;;;;;;;;;;5050265;28;20056;-54
2021/01/18 04:58:11;;;;;;;49.78;22.48;;;;;;;;;;5050681;28;20032;-54
2021/01/18 05:00:50;;;;;;;47.47;21.50;;;;;;;;;;5050126;28;20110;-57
2021/01/18 05:03:20;;;;;;;45.95;22.00;;;;;;;;;;5049971;28;20049;-55
2021/01/18 05:05:52;;;;;;;50.22;21.58;;;;;;;;;;5049561;28;20029;-55
2021/01/18 05:08:33;;;;;;;48.72;22.15;;;;;;;;;;5049098;28;20048;-56
2021/01/18 05:11:01;;;;;;;50.75;21.85;;;;;;;;;;5049211;28;20025;-57
2021/01/18 05:13:28;;;;;;;46.40;22.60;;;;;;;;;;5048827;28;20024;-54
2021/01/18 05:15:54;;;;;;;50.20;22.77;;;;;;;;;;5048579;28;20056;-55
2021/01/18 05:18:24;;;;;;;47.75;22.30;;;;;;;;;;5049551;28;20033;-57
2021/01/18 05:20:50;;;;;;;54.42;25.92;;;;;;;;;;5049029;28;20062;-57
2021/01/18 05:23:16;;;;;;;50.63;23.88;;;;;;;;;;5048897;28;20033;-53
2021/01/18 05:25:42;;;;;;;45.60;22.02;;;;;;;;;;5048939;28;20044;-55
2021/01/18 05:28:09;;;;;;;50.45;24.42;;;;;;;;;;5049057;28;20025;-52
2021/01/18 05:30:39;;;;;;;48.85;21.85;;;;;;;;;;5048645;28;20051;-55
2021/01/18 05:33:07;;;;;;;48.53;20.60;;;;;;;;;;5048456;28;20055;-55
2021/01/18 05:35:33;;;;;;;48.15;22.98;;;;;;;;;;5069010;28;20365;-57
2021/01/18 05:38:01;;;;;;;43.60;21.48;;;;;;;;;;5053994;28;20038;-54
2021/01/18 05:40:28;;;;;;;43.55;21.98;;;;;;;;;;5048838;28;20408;-54
2021/01/18 05:42:54;;;;;;;48.90;22.13;;;;;;;;;;5048750;28;20423;-53
2021/01/18 05:45:30;;;;;;;49.08;21.73;;;;;;;;;;5048251;28;20037;-53
2021/01/18 05:47:56;;;;;;;45.20;22.38;;;;;;;;;;5048583;28;20036;-55
2021/01/18 05:50:23;;;;;;;47.15;22.40;;;;;;;;;;5048738;28;20028;-56
2021/01/18 05:52:49;;;;;;;46.45;22.70;;;;;;;;;;5046163;28;20029;-50
2021/01/18 05:55:17;;;;;;;45.85;21.70;;;;;;;;;;5048137;28;20048;-55
2021/01/18 05:57:50;;;;;;;48.72;22.58;;;;;;;;;;5041223;28;25251;-57
2021/01/18 06:00:25;;;;;;;51.78;21.40;;;;;;;;;;5028452;28;20021;-56
2021/01/18 06:02:51;;;;;;;45.08;22.33;;;;;;;;;;5029712;28;20034;-55
2021/01/18 06:05:23;;;;;;;52.25;24.13;;;;;;;;;;5031945;28;479663;-54
2021/01/18 06:07:50;;;;;;;45.42;23.58;;;;;;;;;;5049764;28;20104;-51
2021/01/18 06:10:17;;;;;;;54.13;25.17;;;;;;;;;;5049241;28;20683;-54
2021/01/18 06:12:43;;;;;;;52.95;24.60;;;;;;;;;;5048644;28;20025;-57
2021/01/18 06:15:10;;;;;;;51.97;23.90;;;;;;;;;;5049048;28;20040;-52
2021/01/18 06:17:37;;;;;;;51.47;24.35;;;;;;;;;;5048944;28;20025;-53
2021/01/18 06:20:03;;;;;;;47.03;23.40;;;;;;;;;;5039530;28;20029;-55
2021/01/18 06:22:30;;;;;;;46.22;22.92;;;;;;;;;;5046198;28;20037;-57
2021/01/18 06:24:56;;;;;;;47.90;23.15;;;;;;;;;;5048711;28;20064;-53
2021/01/18 06:27:34;;;;;;;53.53;23.30;;;;;;;;;;5049307;28;20037;-49
2021/01/18 06:30:00;;;;;;;47.20;23.27;;;;;;;;;;5048842;28;20032;-54
2021/01/18 06:32:30;;;;;;;47.75;22.50;;;;;;;;;;5049223;28;20464;-53
2021/01/18 06:35:02;;;;;;;47.00;23.23;;;;;;;;;;5050046;28;20029;-55
2021/01/18 06:37:29;;;;;;;48.30;23.70;;;;;;;;;;5047484;28;20047;-55
2021/01/18 06:39:56;;;;;;;56.15;24.60;;;;;;;;;;5046348;28;20037;-53
2021/01/18 06:42:23;;;;;;;46.67;21.88;;;;;;;;;;5049511;28;20024;-55
2021/01/18 06:44:50;;;;;;;50.25;22.85;;;;;;;;;;5048244;28;20560;-56
2021/01/18 06:47:22;;;;;;;49.97;24.08;;;;;;;;;;5049080;28;20477;-55
2021/01/18 06:49:51;;;;;;;41.30;18.33;;;;;;;;;;5040914;28;20029;-55
2021/01/18 06:52:21;;;;;;;44.08;22.75;;;;;;;;;;5045909;28;20384;-53
2021/01/18 06:54:51;;;;;;;45.03;22.75;;;;;;;;;;5048844;28;20033;-54
2021/01/18 06:57:28;;;;;;;48.72;22.20;;;;;;;;;;5049430;28;20036;-54
2021/01/18 06:59:57;;;;;;;47.97;21.70;;;;;;;;;;5048272;28;20450;-51
2021/01/18 07:02:26;;;;;;;43.92;21.30;;;;;;;;;;5048705;28;20029;-53
2021/01/18 07:05:04;;;;;;;47.85;22.98;;;;;;;;;;5048927;28;20072;-53
2021/01/18 07:07:33;;;;;;;52.20;24.70;;;;;;;;;;5046717;28;20101;-56
2021/01/18 07:10:06;;;;;;;52.38;23.60;;;;;;;;;;5047018;28;20029;-50
2021/01/18 07:12:32;;;;;;;;;;;;;;;;;;5049355;28;20412;-50
2021/01/18 07:14:59;;;;;;;46.83;23.02;;;;;;;;;;5048698;28;19944;-52
2021/01/18 07:17:30;;;;;;;51.88;23.92;;;;;;;;;;5045641;28;20060;-52
2021/01/18 07:19:59;;;;;;;46.97;23.92;;;;;;;;;;5048979;28;20895;-53
2021/01/18 07:22:44;;;;;;;45.88;23.30;;;;;;;;;;5045642;28;20617;-52
2021/01/18 07:25:12;;;;;;;48.53;23.42;;;;;;;;;;5046506;28;20039;-57
2021/01/18 07:27:44;;;;;;;46.08;23.13;;;;;;;;;;5046910;28;20608;-55
2021/01/18 07:30:11;;;;;;;51.90;25.48;;;;;;;;;;5044642;28;20036;-51
2021/01/18 07:32:37;;;;;;;48.28;23.38;;;;;;;;;;5047567;28;20033;-52
2021/01/18 07:35:04;;;;;;;52.80;24.17;;;;;;;;;;5048816;28;20369;-52
2021/01/18 07:37:30;;;;;;;46.20;23.08;;;;;;;;;;5046147;28;20033;-50
2021/01/18 07:40:08;;;;;;;47.03;23.25;;;;;;;;;;5034907;28;20032;-53
2021/01/18 07:42:34;;;;;;;56.45;25.77;;;;;;;;;;5047755;28;20097;-55
2021/01/18 07:45:13;;;;;;;55.63;24.65;;;;;;;;;;5048563;28;20370;-54
2021/01/18 07:47:57;;;;;;;47.20;22.90;;;;;;;;;;5051710;28;20552;-54
2021/01/18 07:50:30;;;;;;;53.47;24.63;;;;;;;;;;5044188;28;20088;-54
2021/01/18 07:52:56;;;;;;;;;;;;;;;;;;5037167;28;20055;-54
2021/01/18 07:55:22;;;;;;;48.10;22.90;;;;;;;;;;5043725;28;19946;-51
2021/01/18 07:57:48;;;;;;;48.90;23.73;;;;;;;;;;5045409;28;20881;-54
2021/01/18 08:00:17;;;;;;;42.42;22.88;;;;;;;;;;5028709;28;20037;-55
2021/01/18 08:02:43;;;;;;;44.35;23.60;;;;;;;;;;5036995;28;20458;-55
2021/01/18 08:05:34;;;;;;;51.60;23.95;;;;;;;;;;5043811;28;20041;-55
2021/01/18 08:08:01;;;;;;;47.70;23.05;;;;;;;;;;5046814;28;20032;-53
2021/01/18 08:10:46;;;;;;;47.95;23.65;;;;;;;;;;5047030;28;20025;-54
2021/01/18 08:13:27;;;;;;;44.33;21.70;;;;;;;;;;5048445;28;20214;-52
2021/01/18 08:15:53;;;;;;;50.58;23.65;;;;;;;;;;5045568;28;20045;-51
2021/01/18 08:18:27;;;;;;;51.20;25.38;;;;;;;;;;5037226;28;20090;-51
2021/01/18 08:20:53;;;;;;;47.13;22.85;;;;;;;;;;5041431;28;20036;-55
2021/01/18 08:23:38;;;;;;;48.10;22.63;;;;;;;;;;5045256;28;20048;-56
2021/01/18 08:26:06;;;;;;;49.08;25.52;;;;;;;;;;5045075;28;20044;-56
2021/01/18 08:28:34;;;;;;;42.20;22.17;;;;;;;;;;5049582;28;20025;-56
2021/01/18 08:31:00;;;;;;;47.53;23.42;;;;;;;;;;5047351;28;20049;-55
2021/01/18 08:33:26;;;;;;;60.28;31.58;;;;;;;;;;5048273;28;20436;-55
2021/01/18 08:35:57;;;;;;;43.20;22.40;;;;;;;;;;5044386;28;20053;-55
2021/01/18 08:38:26;;;;;;;67.53;31.80;;;;;;;;;;5039629;28;20025;-56
2021/01/18 08:40:53;;;;;;;48.75;22.83;;;;;;;;;;5043197;28;20728;-57
2021/01/18 08:43:22;;;;;;;47.95;22.02;;;;;;;;;;5046907;28;20053;-56
2021/01/18 08:45:48;;;;;;;44.22;22.67;;;;;;;;;;5042986;28;20040;-52
2021/01/18 08:48:15;;;;;;;50.30;24.95;;;;;;;;;;5045653;28;20025;-53
2021/01/18 08:50:46;;;;;;;47.33;22.75;;;;;;;;;;5047336;28;20369;-55
2021/01/18 08:53:32;;;;;;;45.60;22.88;;;;;;;;;;5042068;28;20104;-51
2021/01/18 08:56:01;;;;;;;52.25;24.42;;;;;;;;;;5040468;28;20455;-51
2021/01/18 08:58:45;;;;;;;51.30;24.73;;;;;;;;;;5045224;28;20056;-55
2021/01/18 09:01:13;;;;;;;46.13;23.70;;;;;;;;;;5045960;28;20033;-53
2021/01/18 09:03:39;;;;;;;47.97;24.52;;;;;;;;;;5047746;28;20041;-56
2021/01/18 09:06:05;;;;;;;47.63;24.20;;;;;;;;;;5043110;28;20045;-57
2021/01/18 09:08:31;;;;;;;50.53;26.10;;;;;;;;;;5049597;28;20700;-55
2021/01/18 09:10:59;;;;;;;48.45;24.15;;;;;;;;;;5048626;28;20571;-56
2021/01/18 09:13:27;;;;;;;52.00;26.40;;;;;;;;;;5048037;28;20052;-56
2021/01/18 09:15:54;;;;;;;51.17;26.85;;;;;;;;;;5046772;28;20408;-54
2021/01/18 09:18:22;;;;;;;50.15;24.23;;;;;;;;;;5046486;28;20037;-50
2021/01/18 09:20:49;;;;;;;46.33;21.83;;;;;;;;;;5049785;28;20032;-56
2021/01/18 09:23:15;;;;;;;40.92;21.92;;;;;;;;;;5049621;28;20049;-54
2021/01/18 09:25:41;;;;;;;46.95;23.30;;;;;;;;;;5049229;28;20021;-57
2021/01/18 09:28:08;;;;;;;49.00;24.38;;;;;;;;;;5049842;28;20036;-55
2021/01/18 09:30:34;;;;;;;52.17;25.05;;;;;;;;;;5047668;28;20033;-57
2021/01/18 09:33:02;;;;;;;47.63;23.85;;;;;;;;;;5044835;28;20033;-52
2021/01/18 09:35:29;;;;;;;50.95;24.15;;;;;;;;;;5051639;28;20029;-52
2021/01/18 09:37:55;;;;;;;43.55;23.20;;;;;;;;;;5049927;28;20029;-57
2021/01/18 09:40:21;;;;;;;45.90;23.60;;;;;;;;;;5048846;28;20094;-55
2021/01/18 09:42:47;;;;;;;48.00;24.33;;;;;;;;;;5049883;28;20484;-51
2021/01/18 09:45:14;;;;;;;51.10;25.08;;;;;;;;;;5049720;28;20140;-55
2021/01/18 09:47:40;;;;;;;51.33;25.70;;;;;;;;;;5048683;28;20052;-52
2021/01/18 09:50:09;;;;;;;44.20;23.98;;;;;;;;;;5046319;28;20049;-50
2021/01/18 09:52:38;;;;;;;48.63;25.40;;;;;;;;;;5049259;28;20025;-56
2021/01/18 09:55:09;;;;;;;49.75;24.25;;;;;;;;;;5049739;28;20031;-53
2021/01/18 09:57:37;;;;;;;46.28;24.63;;;;;;;;;;5047806;28;20025;-55
2021/01/18 10:00:03;;;;;;;49.03;24.33;;;;;;;;;;5051435;28;20039;-55
2021/01/18 10:02:30;;;;;;;45.47;25.20;;;;;;;;;;5043845;28;20128;-52
2021/01/18 10:04:57;;;;;;;53.30;26.02;;;;;;;;;;5039620;28;20436;-57
2021/01/18 10:07:25;;;;;;;48.83;25.25;;;;;;;;;;5047665;28;20032;-55
2021/01/18 10:09:55;;;;;;;49.30;24.02;;;;;;;;;;5055765;28;20071;-52
2021/01/18 10:12:24;;;;;;;50.90;26.17;;;;;;;;;;5060805;28;20128;-55
2021/01/18 10:14:51;;;;;;;54.38;25.42;;;;;;;;;;5039347;28;20165;-52
2021/01/18 10:17:17;;;;;;;55.65;26.50;;;;;;;;;;5042437;28;20025;-54
2021/01/18 10:19:43;;;;;;;52.70;25.80;;;;;;;;;;5047126;28;20874;-57
2021/01/18 10:22:16;;;;;;;49.45;25.73;;;;;;;;;;5044936;28;20040;-55
2021/01/18 10:24:42;;;;;;;51.15;25.15;;;;;;;;;;5045168;28;20025;-54
2021/01/18 10:27:13;;;;;;;45.75;24.63;;;;;;;;;;5046660;28;20159;-57
2021/01/18 10:29:42;;;;;;;53.00;26.75;;;;;;;;;;5046450;28;20757;-54
2021/01/18 10:32:09;;;;;;;54.25;25.50;;;;;;;;;;5047050;28;20029;-53
2021/01/18 10:34:36;;;;;;;48.72;25.50;;;;;;;;;;5044690;28;20024;-55
2021/01/18 10:37:13;;;;;;;50.42;23.75;;;;;;;;;;5048160;28;20021;-55
2021/01/18 10:39:40;;;;;;;51.55;26.77;;;;;;;;;;5047912;28;20125;-53
2021/01/18 10:42:07;;;;;;;50.95;25.55;;;;;;;;;;5045346;28;20131;-57
2021/01/18 10:44:34;;;;;;;51.22;25.83;;;;;;;;;;5047857;28;20032;-55
2021/01/18 10:47:00;;;;;;;51.22;26.48;;;;;;;;;;5047050;28;20048;-55
2021/01/18 10:49:27;;;;;;;52.65;25.85;;;;;;;;;;5048200;28;20033;-57
2021/01/18 10:52:03;;;;;;;54.50;26.63;;;;;;;;;;5046679;28;20116;-57
2021/01/18 10:54:29;;;;;;;49.83;25.77;;;;;;;;;;5047225;28;20035;-55
2021/01/18 10:56:56;;;;;;;53.75;27.58;;;;;;;;;;5043048;28;20035;-58
2021/01/18 10:59:22;;;;;;;52.85;26.30;;;;;;;;;;5043391;28;20029;-55
2021/01/18 11:02:04;;;;;;;54.95;27.60;;;;;;;;;;5045689;28;20067;-53
2021/01/18 11:04:33;;;;;;;52.35;25.52;;;;;;;;;;5040999;28;20048;-57
2021/01/18 11:07:00;;;;;;;50.47;26.70;;;;;;;;;;5046515;28;20065;-53
2021/01/18 11:09:28;;;;;;;53.42;25.73;;;;;;;;;;5048664;28;20032;-55
2021/01/18 11:11:56;;;;;;;52.55;26.92;;;;;;;;;;5047321;28;20025;-54
2021/01/18 11:14:22;;;;;;;52.40;27.92;;;;;;;;;;5047597;28;20131;-53
2021/01/18 11:17:00;;;;;;;57.97;26.00;;;;;;;;;;5047333;28;20033;-57
2021/01/18 11:19:26;;;;;;;54.28;27.45;;;;;;;;;;5047849;28;20021;-55
2021/01/18 11:21:52;;;;;;;55.35;28.10;;;;;;;;;;5045772;28;20457;-55
2021/01/18 11:24:18;;;;;;;62.13;27.83;;;;;;;;;;5046878;28;20044;-53
2021/01/18 11:26:47;;;;;;;54.08;27.30;;;;;;;;;;5046467;28;20059;-52
2021/01/18 11:29:13;;;;;;;56.85;28.42;;;;;;;;;;5047196;28;20111;-54
2021/01/18 11:31:39;;;;;;;52.58;25.58;;;;;;;;;;5046952;28;20036;-51
2021/01/18 11:34:05;;;;;;;55.65;27.70;;;;;;;;;;5046267;28;20484;-55
2021/01/18 11:36:31;;;;;;;60.42;29.15;;;;;;;;;;5047110;28;20483;-53
2021/01/18 11:38:57;;;;;;;55.05;27.27;;;;;;;;;;5047355;28;20811;-54
2021/01/18 11:41:23;;;;;;;54.72;27.63;;;;;;;;;;5047088;28;20473;-56
2021/01/18 11:43:49;;;;;;;62.78;29.88;;;;;;;;;;5047141;28;20021;-54
2021/01/18 11:46:16;;;;;;;60.90;27.73;;;;;;;;;;5044218;28;20047;-55
2021/01/18 11:48:42;;;;;;;53.38;26.90;;;;;;;;;;5044947;28;20142;-52
2021/01/18 11:51:08;;;;;;;67.28;30.98;;;;;;;;;;5040074;28;20056;-57
2021/01/18 11:53:34;;;;;;;58.38;27.23;;;;;;;;;;5046690;28;20031;-56
2021/01/18 11:56:00;;;;;;;60.10;27.60;;;;;;;;;;5044325;28;20514;-56
2021/01/18 11:58:26;;;;;;;55.55;26.25;;;;;;;;;;5037827;28;20030;-57
2021/01/18 12:00:52;;;;;;;62.78;28.67;;;;;;;;;;5045881;28;20544;-57
2021/01/18 12:03:18;;;;;;;58.88;28.15;;;;;;;;;;5043997;28;20034;-56
2021/01/18 12:05:44;;;;;;;64.32;28.90;;;;;;;;;;5045381;28;20040;-54
2021/01/18 12:08:10;;;;;;;59.88;27.80;;;;;;;;;;5038656;28;20044;-54
2021/01/18 12:10:36;;;;;;;62.42;29.98;;;;;;;;;;5045980;28;20032;-53
2021/01/18 12:13:06;;;;;;;59.80;29.00;;;;;;;;;;5046520;28;20036;-57
2021/01/18 12:15:33;;;;;;;62.55;29.73;;;;;;;;;;5043605;28;20790;-55
2021/01/18 12:17:59;;;;;;;69.60;30.10;;;;;;;;;;5044908;28;20059;-53
2021/01/18 12:20:25;;;;;;;66.97;28.83;;;;;;;;;;5047605;28;20484;-55
2021/01/18 12:22:55;;;;;;;66.50;29.92;;;;;;;;;;5046985;28;20119;-58
2021/01/18 12:25:21;;;;;;;63.53;29.38;;;;;;;;;;5039492;28;20366;-55
2021/01/18 12:27:51;;;;;;;69.47;28.48;;;;;;;;;;5046028;28;20104;-53
2021/01/18 12:30:17;;;;;;;60.13;26.80;;;;;;;;;;5042218;28;20025;-57
2021/01/18 12:32:43;;;;;;;57.92;26.75;;;;;;;;;;5045069;28;20021;-58
2021/01/18 12:35:10;;;;;;;64.45;27.77;;;;;;;;;;5045210;28;20032;-57
2021/01/18 12:37:36;;;;;;;58.15;25.98;;;;;;;;;;5049495;28;20102;-54
2021/01/18 12:40:02;;;;;;;62.10;25.95;;;;;;;;;;5047998;28;20037;-58
2021/01/18 12:42:28;;;;;;;60.10;26.00;;;;;;;;;;5046213;28;20053;-56
2021/01/18 12:44:54;;;;;;;63.75;26.73;;;;;;;;;;5050129;28;20036;-54
2021/01/18 12:47:20;;;;;;;62.25;27.55;;;;;;;;;;5048703;28;20424;-56
2021/01/18 12:49:46;;;;;;;62.78;27.23;;;;;;;;;;5051280;28;20085;-54
2021/01/18 12:52:12;;;;;;;58.78;27.25;;;;;;;;;;5050686;28;20028;-54
2021/01/18 12:54:37;;;;;;;62.38;26.95;;;;;;;;;;5046293;28;20033;-58
2021/01/18 12:57:04;;;;;;;70.47;27.60;;;;;;;;;;5041353;28;20036;-56
2021/01/18 12:59:30;;;;;;;59.78;25.92;;;;;;;;;;5047901;28;20673;-54
2021/01/18 13:01:56;;;;;;;62.38;26.67;;;;;;;;;;5047518;28;20025;-55
2021/01/18 13:04:22;;;;;;;62.35;26.85;;;;;;;;;;5041205;28;20055;-57
2021/01/18 13:06:49;;;;;;;55.38;25.95;;;;;;;;;;5048134;28;20041;-55
2021/01/18 13:09:19;;;;;;;54.42;24.38;;;;;;;;;;5045780;28;20020;-56
2021/01/18 13:11:49;;;;;;;61.20;26.42;;;;;;;;;;5049766;28;20048;-58
2021/01/18 13:14:16;;;;;;;57.58;25.65;;;;;;;;;;5047100;28;20036;-50
2021/01/18 13:16:42;;;;;;;63.47;24.05;;;;;;;;;;5048069;28;20037;-57
2021/01/18 13:19:08;;;;;;;55.72;25.60;;;;;;;;;;5050114;28;20029;-58
2021/01/18 13:21:34;;;;;;;54.17;25.02;;;;;;;;;;5047978;28;20033;-52
2021/01/18 13:24:00;;;;;;;53.40;24.70;;;;;;;;;;5048058;28;20025;-57
2021/01/18 13:26:26;;;;;;;67.57;26.42;;;;;;;;;;5048317;28;20029;-54
2021/01/18 13:28:52;;;;;;;56.60;24.75;;;;;;;;;;5046653;28;20550;-56
2021/01/18 13:31:19;;;;;;;56.03;24.88;;;;;;;;;;5049190;28;20025;-55
2021/01/18 13:33:45;;;;;;;54.20;23.90;;;;;;;;;;5047730;28;20497;-56
2021/01/18 13:36:18;;;;;;;57.15;25.40;;;;;;;;;;5048443;28;20041;-56
2021/01/18 13:38:44;;;;;;;57.90;26.00;;;;;;;;;;5048594;28;20029;-55
2021/01/18 13:41:14;;;;;;;50.80;24.75;;;;;;;;;;5048047;28;20385;-54
2021/01/18 13:43:40;;;;;;;67.03;25.90;;;;;;;;;;5047871;28;20040;-53
2021/01/18 13:46:09;;;;;;;58.90;23.50;;;;;;;;;;5046887;28;20688;-57
2021/01/18 13:48:35;;;;;;;54.67;24.30;;;;;;;;;;5046631;28;20025;-55
2021/01/18 13:51:01;;;;;;;54.42;23.73;;;;;;;;;;5049192;28;20396;-52
2021/01/18 13:53:27;;;;;;;57.03;24.60;;;;;;;;;;5045697;28;20489;-57
2021/01/18 13:55:53;;;;;;;51.20;23.55;;;;;;;;;;5041368;28;20033;-52
2021/01/18 13:58:19;;;;;;;51.90;24.17;;;;;;;;;;5043934;28;20033;-55
2021/01/18 14:00:45;;;;;;;56.67;22.08;;;;;;;;;;5045472;28;20350;-55
2021/01/18 14:03:11;;;;;;;54.97;23.05;;;;;;;;;;5046547;28;20028;-58
2021/01/18 14:05:40;;;;;;;47.55;23.17;;;;;;;;;;5045014;28;20391;-57
2021/01/18 14:08:06;;;;;;;55.20;23.23;;;;;;;;;;5048028;28;20044;-54
2021/01/18 14:10:32;;;;;;;46.40;22.05;;;;;;;;;;5047790;28;20021;-55
2021/01/18 14:12:58;;;;;;;47.80;22.08;;;;;;;;;;5047234;28;20468;-56
2021/01/18 14:15:24;;;;;;;53.08;22.17;;;;;;;;;;5047849;28;20881;-54
2021/01/18 14:17:50;;;;;;;43.58;20.67;;;;;;;;;;5044844;28;20025;-54
2021/01/18 14:20:16;;;;;;;55.42;21.15;;;;;;;;;;5049035;28;20033;-58
2021/01/18 14:22:42;;;;;;;53.28;22.73;;;;;;;;;;5041327;28;20032;-57
2021/01/18 14:25:12;;;;;;;47.03;20.67;;;;;;;;;;5046586;28;20039;-57